Adelanto, CA (92301)

4:42 AM PDT on September 02, 2014 (GMT -0700)
El Mirage Airport (99CL) | Change Station
CLOSE
Current Station
Personal Weather Station
Location: Adelanto, CA
Elevation: 2880 ft
Nearby Weather Stations

Elev 2880 ft 34.62 °N, 117.60 °W | Updated 1 minute ago

Clear
Clear
63.6 °F
Feels Like 63.6 °F
N
3.1
Wind Variable Wind from WSW
Gusts 3.4 mph

Today
High -- | Low -- °F
--% Chance of Precip.
Yesterday
High -- | Low -- °F
Precip. -- in
6:23 AM 7:14 PM
Waxing Crescent, 50% visible
Pressure 29.90 in
Visibility 10.0 miles
Clouds Clear
Dew Point 38 °F
Humidity 39%
Rainfall 0.00 in
Snow Depth Not available.
UV 0 out of 12
Pollen 7.00 out of 12
Ozone Good
Flu Activity Not available.
METAR KVCV 021135Z AUTO 18009KT 10SM CLR 21/01 A2990 RMK AO2

More Conditions Fewer Conditions

Pressure 29.90 in
Visibility 10.0 miles
Clouds Clear
Dew Point 38 °F
Humidity 39%
Rainfall 0.00 in
Snow Depth Not available.
UV 0 out of 12
Pollen 7.00 out of 12
Ozone Good
Flu Activity Not available.
METAR KVCV 021135Z AUTO 18009KT 10SM CLR 21/01 A2990 RMK AO2

More Conditions Fewer Conditions

10-Day Weather Forecast

Almanac

Astronomy

Sep. 02, 2014 Rise Set
Actual Time 6:23 AM PDT 7:14 PM PDT
Civil Twilight 5:58 AM PDT 7:40 PM PDT
Nautical Twilight 5:27 AM PDT 8:10 PM PDT
Astronomical Twilight 4:56 AM PDT 8:41 PM PDT
Moon 1:55 PM PDT No Moon Set
Length of Visible Light 13h 42m
Length of Day
12h 51m
Tomorrow will be 2m 5s shorter.
Waxing Crescent, 50% of the Moon is Illuminated
Today
Waxing Crescent
Sep 8
Full
Sep 15
Last Quarter
Sep 24
New
Oct 1
First Quarter

Today's Extremes

State Highs State Lows

Community

WunderPhotos

Upload Photos

1,749,621 photos uploaded!

WunderBlogs® & News

By Dr. Jeff Masters
Director of Meteorology, Weather Underground
By Kari Strenfel
Meteorologist, Weather Underground
By Christopher C. Burt
Weather Historian, Weather Underground
September 2, 2014
September 2, 2014
September 2, 2014

Nearby

Air Quality

  Air Quality AQ Index Pollutant
Yesterday Unhealthy for Sensitive Groups
OZONE
Yesterday Good
PM10
Current Good
OZONE
Tuesday Good
PM10
Tuesday Good
OZONE
Tuesday Good
CO
Tuesday Good
NO2

Snow Depth

Station Depth Elevation
Leavitt Lake 0 in 9400 ft
Leavitt Meadows 1 in 7200 ft
Summit Meadow 1 in 9122 ft
Monitor Pass 0 in 8350 ft
Blue Lakes 0 in 8000 ft

Earthquake Activity

City Distance Mag. Time & Date
Malibu, California 110 miles 2.5 8:11 AM PDT
2014-08-30
Minimum magnitude displayed is 2.5.

Coastal Water Temperatures

Place Temperature
No Stations Reporting

Nearby Weather Stations